Time;durP1;ratioP1;P1;durP2;ratioP2;P2;SDS_P1;SDS_P2;PMS_P1;PMS_P2;Temp;Humidity;BMP_temperature;BMP_pressure;BME280_temperature;BME280_humidity;BME280_pressure;Samples;Min_cycle;Max_cycle;Signal;HPM_P1;HPM_P2
2023/07/26 00:02:56;;;;;;;;;;;;;;;14;57.55469;101177.5;;;;-69
2023/07/26 00:07:56;;;;;;;;;;;;;;;13.98;57.5957;101173.5;;;;-69
2023/07/26 00:12:56;;;;;;;;;;;;;;;14.01;57.29883;101173.5;;;;-67
2023/07/26 00:17:56;;;;;;;;;;;;;;;13.94;57.42383;101174.5;;;;-68
2023/07/26 00:20:11;;;;;;;0.2;0;;;;;;;;;;;;;-68
2023/07/26 00:22:57;;;;;;;;;;;;;;;13.88;57.67285;101174.4;;;;-67
2023/07/26 00:27:57;;;;;;;;;;;;;;;13.8;57.47168;101173.9;;;;-69
2023/07/26 00:32:57;;;;;;;;;;;;;;;13.74;57.80176;101172.9;;;;-69
2023/07/26 00:37:56;;;;;;;;;;;;;;;13.72;57.69727;101171.6;;;;-68
2023/07/26 00:42:57;;;;;;;;;;;;;;;13.66;57.67773;101167.8;;;;-69
2023/07/26 00:47:57;;;;;;;;;;;;;;;13.57;57.79004;101169.3;;;;-68
2023/07/26 00:50:13;;;;;;;0.2;0.1;;;;;;;;;;;;;-68
2023/07/26 00:52:57;;;;;;;;;;;;;;;13.48;57.7334;101171;;;;-68
2023/07/26 00:57:57;;;;;;;;;;;;;;;13.45;57.78516;101175.3;;;;-68
2023/07/26 01:02:57;;;;;;;;;;;;;;;13.36;58.04297;101179.7;;;;-69
2023/07/26 01:08:02;;;;;;;;;;;;;;;13.33;58.33984;101180.2;;;;-68
2023/07/26 01:12:58;;;;;;;;;;;;;;;13.32;58.2168;101180.6;;;;-69
2023/07/26 01:18:06;;;;;;;;;;;;;;;13.25;58.19531;101182.2;;;;-68
2023/07/26 01:20:14;;;;;;;0.2;0;;;;;;;;;;;;;-69
2023/07/26 01:22:56;;;;;;;;;;;;;;;13.2;58.46973;101175.7;;;;-68
2023/07/26 01:27:56;;;;;;;;;;;;;;;13.12;58.34668;101171.3;;;;-68
2023/07/26 01:32:57;;;;;;;;;;;;;;;13.06;58.58496;101171.4;;;;-69
2023/07/26 01:37:57;;;;;;;;;;;;;;;13.03;58.41309;101167.4;;;;-67
2023/07/26 01:42:57;;;;;;;;;;;;;;;12.98;58.54004;101164;;;;-69
2023/07/26 01:47:57;;;;;;;;;;;;;;;12.91;58.64258;101159.3;;;;-70
2023/07/26 01:50:16;;;;;;;0.2;0.1;;;;;;;;;;;;;-68
2023/07/26 01:52:56;;;;;;;;;;;;;;;12.88;58.49316;101156;;;;-69
2023/07/26 01:57:57;;;;;;;;;;;;;;;12.83;58.55469;101163.5;;;;-67
2023/07/26 02:02:57;;;;;;;;;;;;;;;12.78;58.6377;101160.3;;;;-69
2023/07/26 02:07:57;;;;;;;;;;;;;;;12.69;58.61523;101164.4;;;;-70
2023/07/26 02:12:56;;;;;;;;;;;;;;;12.67;58.81348;101164.4;;;;-69
2023/07/26 02:17:57;;;;;;;;;;;;;;;12.64;58.97754;101163.4;;;;-70
2023/07/26 02:20:18;;;;;;;0.2;0.1;;;;;;;;;;;;;-68
2023/07/26 02:22:58;;;;;;;;;;;;;;;12.63;59.07617;101168.1;;;;-68
2023/07/26 02:27:56;;;;;;;;;;;;;;;12.65;58.68652;101157.6;;;;-68
2023/07/26 02:32:57;;;;;;;;;;;;;;;12.59;58.99121;101156.2;;;;-68
2023/07/26 02:37:56;;;;;;;;;;;;;;;12.62;58.8623;101155.8;;;;-70
2023/07/26 02:42:56;;;;;;;;;;;;;;;12.63;58.78516;101158.9;;;;-68
2023/07/26 02:47:57;;;;;;;;;;;;;;;12.66;58.75488;101151;;;;-68
2023/07/26 02:50:19;;;;;;;0.2;0.1;;;;;;;;;;;;;-68
2023/07/26 02:52:56;;;;;;;;;;;;;;;12.69;58.64746;101155.1;;;;-68
2023/07/26 02:57:56;;;;;;;;;;;;;;;12.7;59.00684;101151.5;;;;-68
2023/07/26 03:02:56;;;;;;;;;;;;;;;12.76;58.80176;101148.5;;;;-68
2023/07/26 03:07:57;;;;;;;;;;;;;;;12.82;58.73242;101142.4;;;;-70
2023/07/26 03:12:58;;;;;;;;;;;;;;;12.89;59.32324;101145.2;;;;-68
2023/07/26 03:17:56;;;;;;;;;;;;;;;12.93;58.78027;101144.9;;;;-70
2023/07/26 03:20:21;;;;;;;0.2;0.1;;;;;;;;;;;;;-67
2023/07/26 03:22:56;;;;;;;;;;;;;;;12.97;59.3125;101144.9;;;;-69
2023/07/26 03:27:56;;;;;;;;;;;;;;;13.04;58.99707;101146.9;;;;-68
2023/07/26 03:32:56;;;;;;;;;;;;;;;13.05;59.22168;101145.3;;;;-69
2023/07/26 03:37:57;;;;;;;;;;;;;;;13.1;58.9043;101141.1;;;;-68
2023/07/26 03:42:57;;;;;;;;;;;;;;;13.13;59.24414;101144.8;;;;-68
2023/07/26 03:47:56;;;;;;;;;;;;;;;13.14;58.93262;101146.2;;;;-69
2023/07/26 03:50:23;;;;;;;0.2;0.1;;;;;;;;;;;;;-69
2023/07/26 03:52:57;;;;;;;;;;;;;;;13.19;58.64746;101139.8;;;;-69
2023/07/26 03:57:56;;;;;;;;;;;;;;;13.17;58.60059;101137.5;;;;-67
2023/07/26 04:02:56;;;;;;;;;;;;;;;13.23;58.65234;101137.8;;;;-69
2023/07/26 04:07:56;;;;;;;;;;;;;;;13.25;59.39551;101141.7;;;;-67
2023/07/26 04:12:57;;;;;;;;;;;;;;;13.28;58.58105;101138.3;;;;-68
2023/07/26 04:17:56;;;;;;;;;;;;;;;13.31;58.61914;101138.2;;;;-70
2023/07/26 04:20:25;;;;;;;0.2;0.1;;;;;;;;;;;;;-69
2023/07/26 04:22:56;;;;;;;;;;;;;;;13.37;58.7168;101135.6;;;;-68
2023/07/26 04:27:56;;;;;;;;;;;;;;;13.41;59.31543;101134.3;;;;-67
2023/07/26 04:32:57;;;;;;;;;;;;;;;13.48;58.76465;101140.2;;;;-67
2023/07/26 04:37:57;;;;;;;;;;;;;;;13.53;58.97461;101143.1;;;;-69
2023/07/26 04:43:00;;;;;;;;;;;;;;;13.58;59.43848;101151.1;;;;-69
2023/07/26 04:47:56;;;;;;;;;;;;;;;13.64;59.48242;101147.7;;;;-71
2023/07/26 04:50:26;;;;;;;0.2;0.1;;;;;;;;;;;;;-69
2023/07/26 04:52:57;;;;;;;;;;;;;;;13.69;59.62305;101138.8;;;;-68
2023/07/26 04:57:56;;;;;;;;;;;;;;;13.75;60.28125;101130.3;;;;-68
2023/07/26 05:02:57;;;;;;;;;;;;;;;13.79;60.11914;101126.4;;;;-70
2023/07/26 05:07:56;;;;;;;;;;;;;;;13.87;60.83691;101140;;;;-68
2023/07/26 05:12:57;;;;;;;;;;;;;;;13.94;63.08887;101169.1;;;;-69
2023/07/26 05:17:57;;;;;;;;;;;;;;;13.99;65.20215;101204.1;;;;-70
2023/07/26 05:20:29;;;;;;;0.2;0;;;;;;;;;;;;;-70
2023/07/26 05:22:56;;;;;;;;;;;;;;;13.88;65.74512;101188.9;;;;-70
2023/07/26 05:27:56;;;;;;;;;;;;;;;13.79;65.85449;101183.2;;;;-72
2023/07/26 05:32:56;;;;;;;;;;;;;;;13.75;64.10254;101211.5;;;;-73
2023/07/26 05:37:57;;;;;;;;;;;;;;;13.71;63.7832;101211.9;;;;-73
2023/07/26 05:42:57;;;;;;;;;;;;;;;13.67;63.4082;101211.1;;;;-74
2023/07/26 05:47:57;;;;;;;;;;;;;;;13.64;63.25879;101202.8;;;;-72
2023/07/26 05:50:30;;;;;;;0.2;0.1;;;;;;;;;;;;;-71
2023/07/26 05:52:56;;;;;;;;;;;;;;;13.61;63.25391;101220;;;;-73
2023/07/26 05:57:57;;;;;;;;;;;;;;;13.61;63.00684;101250.3;;;;-73
2023/07/26 06:02:57;;;;;;;;;;;;;;;13.59;63.28418;101238.6;;;;-70
2023/07/26 06:07:56;;;;;;;;;;;;;;;13.57;63.38281;101233.6;;;;-70
2023/07/26 06:12:57;;;;;;;;;;;;;;;13.57;63.34961;101225.8;;;;-72
2023/07/26 06:17:57;;;;;;;;;;;;;;;13.57;63.25977;101222.1;;;;-71
2023/07/26 06:20:32;;;;;;;0.3;0.1;;;;;;;;;;;;;-71
2023/07/26 06:23:00;;;;;;;;;;;;;;;13.62;63.10938;101229.9;;;;-72
2023/07/26 06:27:56;;;;;;;;;;;;;;;13.71;62.875;101241.9;;;;-70
2023/07/26 06:32:56;;;;;;;;;;;;;;;13.76;62.93945;101238.3;;;;-70
2023/07/26 06:37:58;;;;;;;;;;;;;;;13.97;62.85645;101244.1;;;;-71
2023/07/26 06:43:00;;;;;;;;;;;;;;;14.46;62.89258;101243;;;;-73
2023/07/26 06:47:57;;;;;;;;;;;;;;;14.84;62.64453;101244.4;;;;-71
2023/07/26 06:50:34;;;;;;;0.3;0.1;;;;;;;;;;;;;-71
2023/07/26 06:52:57;;;;;;;;;;;;;;;15.28;62.29199;101246.1;;;;-71
2023/07/26 06:57:56;;;;;;;;;;;;;;;15.64;62.25195;101241.5;;;;-70
2023/07/26 07:02:57;;;;;;;;;;;;;;;16.08;63.55371;101238.1;;;;-70
2023/07/26 07:07:56;;;;;;;;;;;;;;;16.42;63.9502;101242.5;;;;-71
2023/07/26 07:12:56;;;;;;;;;;;;;;;16.77;63.77734;101245.2;;;;-69
2023/07/26 07:17:56;;;;;;;;;;;;;;;17.3;63.2207;101244.4;;;;-68
2023/07/26 07:20:36;;;;;;;0.2;0.1;;;;;;;;;;;;;-69
2023/07/26 07:22:59;;;;;;;;;;;;;;;17.79;63.04199;101248.6;;;;-70
2023/07/26 07:27:56;;;;;;;;;;;;;;;18.27;60.96875;101245.7;;;;-70
2023/07/26 07:32:56;;;;;;;;;;;;;;;18.81;61.46094;101247.1;;;;-68
2023/07/26 07:37:56;;;;;;;;;;;;;;;18.95;62.86621;101248.1;;;;-69
2023/07/26 07:42:56;;;;;;;;;;;;;;;18.99;61.01172;101248.7;;;;-70
2023/07/26 07:47:56;;;;;;;;;;;;;;;18.92;61.72852;101241.7;;;;-69
2023/07/26 07:50:41;;;;;;;0.2;0.1;;;;;;;;;;;;;-68
2023/07/26 07:52:56;;;;;;;;;;;;;;;19.4;62.41797;101247.3;;;;-69
2023/07/26 07:57:56;;;;;;;;;;;;;;;19.64;61.07715;101245.1;;;;-70
2023/07/26 08:02:56;;;;;;;;;;;;;;;19.57;59.81836;101251.5;;;;-69
2023/07/26 08:07:57;;;;;;;;;;;;;;;19.35;60.36816;101252.3;;;;-69
2023/07/26 08:12:56;;;;;;;;;;;;;;;19.11;60.3252;101250;;;;-71
2023/07/26 08:17:56;;;;;;;;;;;;;;;18.81;60.83887;101247.9;;;;-71
2023/07/26 08:20:41;;;;;;;0.2;0;;;;;;;;;;;;;-69
2023/07/26 08:22:56;;;;;;;;;;;;;;;18.59;60.61621;101253.5;;;;-69
2023/07/26 08:27:56;;;;;;;;;;;;;;;18.32;61.33789;101262.5;;;;-74
2023/07/26 08:32:56;;;;;;;;;;;;;;;18.12;61.75293;101262.2;;;;-73
2023/07/26 08:37:56;;;;;;;;;;;;;;;18;62.12109;101269.2;;;;-72
2023/07/26 08:42:58;;;;;;;;;;;;;;;18.06;64.12012;101270.5;;;;-73
2023/07/26 08:47:58;;;;;;;;;;;;;;;18.81;63.82031;101255.5;;;;-72
2023/07/26 08:50:44;;;;;;;0.2;0;;;;;;;;;;;;;-71
2023/07/26 08:52:56;;;;;;;;;;;;;;;19.89;60.23633;101253.9;;;;-72
2023/07/26 08:57:56;;;;;;;;;;;;;;;20.54;59.12793;101252.6;;;;-70
2023/07/26 09:02:58;;;;;;;;;;;;;;;20.81;58.66309;101254.9;;;;-72
2023/07/26 09:07:56;;;;;;;;;;;;;;;20.56;58.45801;101261.7;;;;-71
2023/07/26 09:13:06;;;;;;;;;;;;;;;20.3;60.94043;101258.1;;;;-73
2023/07/26 09:17:56;;;;;;;;;;;;;;;20.61;60.10449;101248.7;;;;-71
2023/07/26 09:20:47;;;;;;;0.2;0;;;;;;;;;;;;;-72
2023/07/26 09:23:02;;;;;;;;;;;;;;;21.12;59.35352;101249.7;;;;-72
2023/07/26 09:27:59;;;;;;;;;;;;;;;21.56;57.92676;101249.5;;;;-70
2023/07/26 09:32:57;;;;;;;;;;;;;;;21.75;56.70605;101252.1;;;;-72
2023/07/26 09:37:57;;;;;;;;;;;;;;;21.92;56.8877;101246.9;;;;-71
2023/07/26 09:42:56;;;;;;;;;;;;;;;22.18;55.88086;101248.8;;;;-70
2023/07/26 09:48:06;;;;;;;;;;;;;;;22.16;55.46484;101259.3;;;;-70
2023/07/26 09:50:52;;;;;;;0.2;0.1;;;;;;;;;;;;;-68
2023/07/26 09:52:58;;;;;;;;;;;;;;;22.33;55.94336;101255.6;;;;-71
2023/07/26 09:57:57;;;;;;;;;;;;;;;22.75;54.9541;101255.1;;;;-68
2023/07/26 10:02:58;;;;;;;;;;;;;;;23;53.62988;101258.8;;;;-68
2023/07/26 10:07:56;;;;;;;;;;;;;;;22.77;53.39648;101254.2;;;;-67
2023/07/26 10:12:58;;;;;;;;;;;;;;;22.54;53.34668;101257.5;;;;-72
2023/07/26 10:17:57;;;;;;;;;;;;;;;22.49;53.69629;101262.5;;;;-69
2023/07/26 10:20:54;;;;;;;0.2;0;;;;;;;;;;;;;-72
2023/07/26 10:22:58;;;;;;;;;;;;;;;22.25;53.78027;101261;;;;-71
2023/07/26 10:27:57;;;;;;;;;;;;;;;22.23;54.06543;101260.7;;;;-69
2023/07/26 10:32:56;;;;;;;;;;;;;;;22.39;54.07422;101265.6;;;;-69
2023/07/26 10:38:01;;;;;;;;;;;;;;;23.02;52.64648;101273.5;;;;-69
2023/07/26 10:42:56;;;;;;;;;;;;;;;22.83;52.39551;101267.6;;;;-68
2023/07/26 10:47:58;;;;;;;;;;;;;;;23.15;51.50293;101266.5;;;;-68
2023/07/26 10:50:58;;;;;;;0.2;0;;;;;;;;;;;;;-72
2023/07/26 10:52:56;;;;;;;;;;;;;;;23.11;51.25684;101264.7;;;;-67
2023/07/26 10:58:01;;;;;;;;;;;;;;;23.07;51.33203;101275.9;;;;-68
2023/07/26 11:03:03;;;;;;;;;;;;;;;23.48;50.67871;101275.7;;;;-69
2023/07/26 11:07:58;;;;;;;;;;;;;;;23.48;50.56348;101277.2;;;;-72
2023/07/26 11:13:07;;;;;;;;;;;;;;;23.6;50.2207;101275.3;;;;-71
2023/07/26 11:17:56;;;;;;;;;;;;;;;23.62;50.81934;101285.4;;;;-72
2023/07/26 11:21:01;;;;;;;1.4;0.2;;;;;;;;;;;;;-73
2023/07/26 11:22:57;;;;;;;;;;;;;;;23.76;52.27344;101295.7;;;;-71
2023/07/26 11:27:57;;;;;;;;;;;;;;;23.61;50.48633;101287.6;;;;-71
2023/07/26 11:32:56;;;;;;;;;;;;;;;23.5;51.03613;101295.4;;;;-71
2023/07/26 11:38:00;;;;;;;;;;;;;;;23.62;50.47559;101298.5;;;;-72
2023/07/26 11:42:57;;;;;;;;;;;;;;;23.45;50.92773;101299.1;;;;-74
2023/07/26 11:47:57;;;;;;;;;;;;;;;23.19;52.06836;101302.2;;;;-71
2023/07/26 11:51:06;;;;;;;0.2;0;;;;;;;;;;;;;-71
2023/07/26 11:53:08;;;;;;;;;;;;;;;22.93;52.45215;101301.7;;;;-71
2023/07/26 11:57:56;;;;;;;;;;;;;;;22.69;52.90527;101314.3;;;;-71
2023/07/26 12:02:57;;;;;;;;;;;;;;;22.61;53.42383;101311.1;;;;-72
2023/07/26 12:07:57;;;;;;;;;;;;;;;22.86;53.67285;101306.8;;;;-72
2023/07/26 12:12:56;;;;;;;;;;;;;;;23.4;53.50684;101304.1;;;;-72
2023/07/26 12:18:07;;;;;;;;;;;;;;;23.53;52.87891;101311.8;;;;-72
2023/07/26 12:21:09;;;;;;;0.3;0.1;;;;;;;;;;;;;-72
2023/07/26 12:22:58;;;;;;;;;;;;;;;23.56;52.93945;101309.6;;;;-72
2023/07/26 12:27:56;;;;;;;;;;;;;;;23.47;52.71094;101313.9;;;;-72
2023/07/26 12:33:10;;;;;;;;;;;;;;;23.49;52.86328;101315.7;;;;-73
2023/07/26 12:37:56;;;;;;;;;;;;;;;23.46;52.91602;101324.5;;;;-72
2023/07/26 12:42:57;;;;;;;;;;;;;;;23.43;53.17676;101324;;;;-72
2023/07/26 12:47:56;;;;;;;;;;;;;;;23.91;52.99316;101327.4;;;;-71
2023/07/26 12:51:13;;;;;;;0.2;0;;;;;;;;;;;;;-72
2023/07/26 12:52:56;;;;;;;;;;;;;;;24.41;52.10742;101333.7;;;;-72
2023/07/26 12:57:59;;;;;;;;;;;;;;;24.32;50.75;101337;;;;-71
2023/07/26 13:02:56;;;;;;;;;;;;;;;24.37;52.16016;101339.2;;;;-72
2023/07/26 13:07:57;;;;;;;;;;;;;;;24.8;51.87695;101337.9;;;;-72
2023/07/26 13:12:57;;;;;;;;;;;;;;;24.98;51.75781;101345.4;;;;-72
2023/07/26 13:17:56;;;;;;;;;;;;;;;25.12;50.77148;101343.3;;;;-73
2023/07/26 13:21:16;;;;;;;0.2;0;;;;;;;;;;;;;-71
2023/07/26 13:22:56;;;;;;;;;;;;;;;25.44;50.51855;101334.7;;;;-71
2023/07/26 13:27:56;;;;;;;;;;;;;;;25.64;50.69141;101338;;;;-71
2023/07/26 13:32:56;;;;;;;;;;;;;;;25.75;48.34473;101336.1;;;;-72
2023/07/26 13:37:56;;;;;;;;;;;;;;;26.01;50.29297;101338.3;;;;-72
2023/07/26 13:42:57;;;;;;;;;;;;;;;26.25;49.18652;101333.2;;;;-72
2023/07/26 13:47:56;;;;;;;;;;;;;;;26.48;48.74805;101345.2;;;;-72
2023/07/26 13:51:21;;;;;;;0.5;0.2;;;;;;;;;;;;;-74
2023/07/26 13:52:56;;;;;;;;;;;;;;;26.64;49.86621;101344.8;;;;-73
2023/07/26 13:57:56;;;;;;;;;;;;;;;26.65;48.47559;101341.7;;;;-72
2023/07/26 14:02:56;;;;;;;;;;;;;;;26.67;47.40137;101336;;;;-73
2023/07/26 14:07:56;;;;;;;;;;;;;;;26.83;49.22559;101328;;;;-73
2023/07/26 14:12:56;;;;;;;;;;;;;;;26.94;48.77344;101333.3;;;;-72
2023/07/26 14:17:56;;;;;;;;;;;;;;;26.95;48.04492;101327.3;;;;-72
2023/07/26 14:21:25;;;;;;;0.2;0;;;;;;;;;;;;;-72
2023/07/26 14:22:56;;;;;;;;;;;;;;;26.93;48.4248;101328.7;;;;-72
2023/07/26 14:27:56;;;;;;;;;;;;;;;26.97;48.16309;101330.7;;;;-72
2023/07/26 14:32:56;;;;;;;;;;;;;;;27.13;47.74023;101333.3;;;;-73
2023/07/26 14:37:56;;;;;;;;;;;;;;;27.07;47.65137;101326.4;;;;-71
2023/07/26 14:42:56;;;;;;;;;;;;;;;26.91;47.27637;101332;;;;-72
2023/07/26 14:47:56;;;;;;;;;;;;;;;26.95;47.02441;101336.8;;;;-70
2023/07/26 14:51:30;;;;;;;0.2;0.1;;;;;;;;;;;;;-71
2023/07/26 14:52:56;;;;;;;;;;;;;;;26.86;47.10742;101340.9;;;;-72
2023/07/26 14:57:56;;;;;;;;;;;;;;;26.83;47.09375;101332;;;;-72
2023/07/26 15:02:56;;;;;;;;;;;;;;;26.76;46.2168;101333.5;;;;-73
2023/07/26 15:07:56;;;;;;;;;;;;;;;26.8;46.58008;101337.2;;;;-72
2023/07/26 15:12:56;;;;;;;;;;;;;;;26.77;46.7041;101339.1;;;;-72
2023/07/26 15:17:56;;;;;;;;;;;;;;;26.75;45.60059;101344.8;;;;-73
2023/07/26 15:21:34;;;;;;;0.2;0;;;;;;;;;;;;;-72
2023/07/26 15:22:57;;;;;;;;;;;;;;;26.74;46.93359;101346.4;;;;-71
2023/07/26 15:27:56;;;;;;;;;;;;;;;26.83;46.39746;101345.9;;;;-72
2023/07/26 15:32:56;;;;;;;;;;;;;;;26.76;45.24121;101340.1;;;;-74
2023/07/26 15:37:56;;;;;;;;;;;;;;;26.83;46.90723;101334.1;;;;-68
2023/07/26 15:42:56;;;;;;;;;;;;;;;26.8;45.32715;101331.4;;;;-69
2023/07/26 15:47:56;;;;;;;;;;;;;;;26.78;44.59473;101328.8;;;;-69
2023/07/26 15:51:39;;;;;;;0.2;0;;;;;;;;;;;;;-70
2023/07/26 15:52:56;;;;;;;;;;;;;;;26.75;45.97168;101324.1;;;;-68
2023/07/26 15:57:56;;;;;;;;;;;;;;;26.62;45.77344;101327.1;;;;-68
2023/07/26 16:02:56;;;;;;;;;;;;;;;26.61;45.80664;101320;;;;-69
2023/07/26 16:07:57;;;;;;;;;;;;;;;26.57;46.11621;101321.8;;;;-68
2023/07/26 16:12:56;;;;;;;;;;;;;;;26.47;46.66211;101313.1;;;;-69
2023/07/26 16:17:56;;;;;;;;;;;;;;;26.43;45.93848;101306.9;;;;-68
2023/07/26 16:21:44;;;;;;;0.2;0;;;;;;;;;;;;;-69
2023/07/26 16:22:56;;;;;;;;;;;;;;;26.27;46.18945;101296.7;;;;-69
2023/07/26 16:27:56;;;;;;;;;;;;;;;26.11;46.3916;101291.8;;;;-67
2023/07/26 16:32:57;;;;;;;;;;;;;;;26.07;45.80957;101286.8;;;;-70
2023/07/26 16:37:56;;;;;;;;;;;;;;;25.99;46.77441;101278.5;;;;-69
2023/07/26 16:42:56;;;;;;;;;;;;;;;25.87;45.70898;101277.8;;;;-68
2023/07/26 16:47:56;;;;;;;;;;;;;;;25.72;46.39844;101278.2;;;;-70
2023/07/26 16:51:49;;;;;;;0.2;0;;;;;;;;;;;;;-69
2023/07/26 16:52:56;;;;;;;;;;;;;;;25.61;46.30762;101272.8;;;;-69
2023/07/26 16:57:56;;;;;;;;;;;;;;;25.53;46.91113;101271.7;;;;-69
2023/07/26 17:02:56;;;;;;;;;;;;;;;25.42;46.63379;101264.4;;;;-71
2023/07/26 17:07:56;;;;;;;;;;;;;;;25.23;47.01953;101265.9;;;;-68
2023/07/26 17:12:56;;;;;;;;;;;;;;;25.08;47.53418;101270.7;;;;-68
2023/07/26 17:17:56;;;;;;;;;;;;;;;24.93;47.73828;101266.8;;;;-69
2023/07/26 17:21:55;;;;;;;0.2;0;;;;;;;;;;;;;-70
2023/07/26 17:22:56;;;;;;;;;;;;;;;24.79;47.93164;101269.4;;;;-67
2023/07/26 17:27:56;;;;;;;;;;;;;;;24.63;47.92578;101270.7;;;;-69
2023/07/26 17:32:56;;;;;;;;;;;;;;;24.46;47.50391;101268.4;;;;-70
2023/07/26 17:37:56;;;;;;;;;;;;;;;24.22;47.20215;101260.8;;;;-68
2023/07/26 17:42:57;;;;;;;;;;;;;;;24;48.49219;101248.6;;;;-72
2023/07/26 17:47:56;;;;;;;;;;;;;;;23.82;48.82813;101247.4;;;;-69
2023/07/26 17:51:57;;;;;;;0.3;0.1;;;;;;;;;;;;;-69
2023/07/26 17:52:56;;;;;;;;;;;;;;;23.65;49.01758;101247.2;;;;-68
2023/07/26 17:57:59;;;;;;;;;;;;;;;23.48;48.75781;101249;;;;-74
2023/07/26 18:02:56;;;;;;;;;;;;;;;23.3;48.9209;101242.5;;;;-69
2023/07/26 18:07:56;;;;;;;;;;;;;;;23.09;49.04785;101241.2;;;;-67
2023/07/26 18:12:56;;;;;;;;;;;;;;;21.74;48.32715;101245.3;;;;-68
2023/07/26 18:17:57;;;;;;;;;;;;;;;22.25;48.99023;101245.9;;;;-69
2023/07/26 18:22:02;;;;;;;0.2;0;;;;;;;;;;;;;-68
2023/07/26 18:22:56;;;;;;;;;;;;;;;22.28;48.71875;101236.4;;;;-69
2023/07/26 18:27:58;;;;;;;;;;;;;;;22.17;48.5918;101234.1;;;;-69
2023/07/26 18:32:56;;;;;;;;;;;;;;;22.01;48.94141;101232.7;;;;-69
2023/07/26 18:37:56;;;;;;;;;;;;;;;21.84;48.80859;101228;;;;-69
2023/07/26 18:42:56;;;;;;;;;;;;;;;21.67;48.54883;101231;;;;-66
2023/07/26 18:47:56;;;;;;;;;;;;;;;21.49;48.64453;101236.4;;;;-70
2023/07/26 18:52:05;;;;;;;0.2;0.1;;;;;;;;;;;;;-68
2023/07/26 18:52:56;;;;;;;;;;;;;;;21.28;48.96484;101236;;;;-70
2023/07/26 18:57:56;;;;;;;;;;;;;;;21.1;48.9668;101238.7;;;;-69
2023/07/26 19:02:56;;;;;;;;;;;;;;;20.9;48.72852;101239;;;;-68
2023/07/26 19:07:56;;;;;;;;;;;;;;;20.69;49.16211;101236.2;;;;-70
2023/07/26 19:12:56;;;;;;;;;;;;;;;20.49;49.24414;101233.8;;;;-69
2023/07/26 19:17:57;;;;;;;;;;;;;;;20.3;49.38281;101237.4;;;;-68
2023/07/26 19:22:09;;;;;;;1.2;0.3;;;;;;;;;;;;;-69
2023/07/26 19:23:00;;;;;;;;;;;;;;;20.1;49.0752;101237.8;;;;-68
2023/07/26 19:27:56;;;;;;;;;;;;;;;19.93;49.61523;101236.7;;;;-69
2023/07/26 19:32:56;;;;;;;;;;;;;;;19.73;49.84473;101235.9;;;;-68
2023/07/26 19:37:57;;;;;;;;;;;;;;;19.57;50.09961;101235.6;;;;-69
2023/07/26 19:42:56;;;;;;;;;;;;;;;19.37;50.30469;101233.2;;;;-68
2023/07/26 19:47:57;;;;;;;;;;;;;;;19.23;50.50488;101229.2;;;;-69
2023/07/26 19:52:12;;;;;;;0.2;0.1;;;;;;;;;;;;;-70
2023/07/26 19:52:56;;;;;;;;;;;;;;;19.05;50.41699;101227.8;;;;-70
2023/07/26 19:57:56;;;;;;;;;;;;;;;18.9;50.50195;101226.2;;;;-70
2023/07/26 20:02:56;;;;;;;;;;;;;;;18.77;50.74902;101223.4;;;;-69
2023/07/26 20:07:56;;;;;;;;;;;;;;;18.64;51.25586;101221.6;;;;-69
2023/07/26 20:12:56;;;;;;;;;;;;;;;18.51;51.05957;101217.1;;;;-70
2023/07/26 20:17:56;;;;;;;;;;;;;;;18.39;51.05762;101214;;;;-68
2023/07/26 20:22:15;;;;;;;0.2;0;;;;;;;;;;;;;-69
2023/07/26 20:22:56;;;;;;;;;;;;;;;18.25;51.40527;101217.5;;;;-69
2023/07/26 20:27:56;;;;;;;;;;;;;;;18.16;51.59766;101218.4;;;;-69
2023/07/26 20:32:58;;;;;;;;;;;;;;;18.04;51.54004;101216.2;;;;-69
2023/07/26 20:37:56;;;;;;;;;;;;;;;17.94;51.83496;101203.7;;;;-69
2023/07/26 20:42:56;;;;;;;;;;;;;;;17.81;51.86426;101204.1;;;;-69
2023/07/26 20:47:56;;;;;;;;;;;;;;;17.69;51.88477;101196.9;;;;-69
2023/07/26 20:52:19;;;;;;;0.3;0.1;;;;;;;;;;;;;-70
2023/07/26 20:52:57;;;;;;;;;;;;;;;17.58;51.96191;101196.6;;;;-69
2023/07/26 20:57:56;;;;;;;;;;;;;;;17.47;52.09668;101193.1;;;;-69
2023/07/26 21:02:58;;;;;;;;;;;;;;;17.37;51.95996;101186;;;;-69
2023/07/26 21:07:56;;;;;;;;;;;;;;;17.29;52.17578;101187;;;;-69
2023/07/26 21:12:56;;;;;;;;;;;;;;;17.2;52.31348;101175.9;;;;-68
2023/07/26 21:17:59;;;;;;;;;;;;;;;17.09;52.3457;101168.1;;;;-70
2023/07/26 21:22:21;;;;;;;0.2;0;;;;;;;;;;;;;-69
2023/07/26 21:22:56;;;;;;;;;;;;;;;17.03;52.21387;101160.3;;;;-68
2023/07/26 21:27:56;;;;;;;;;;;;;;;16.96;52.43262;101153.7;;;;-69
2023/07/26 21:32:56;;;;;;;;;;;;;;;16.88;52.57031;101149.5;;;;-68
2023/07/26 21:37:56;;;;;;;;;;;;;;;16.84;52.42871;101143.2;;;;-68
2023/07/26 21:42:56;;;;;;;;;;;;;;;16.77;52.59082;101136.5;;;;-68
2023/07/26 21:47:56;;;;;;;;;;;;;;;16.69;52.55859;101130.1;;;;-69
2023/07/26 21:52:23;;;;;;;0.4;0.1;;;;;;;;;;;;;-69
2023/07/26 21:52:56;;;;;;;;;;;;;;;16.63;52.49609;101128.7;;;;-68
2023/07/26 21:57:56;;;;;;;;;;;;;;;16.6;52.80957;101122.9;;;;-69
2023/07/26 22:02:58;;;;;;;;;;;;;;;16.52;52.71973;101120.1;;;;-70
2023/07/26 22:07:56;;;;;;;;;;;;;;;16.49;52.9082;101111.8;;;;-68
2023/07/26 22:12:56;;;;;;;;;;;;;;;16.42;52.76465;101097.6;;;;-69
2023/07/26 22:17:56;;;;;;;;;;;;;;;16.41;53.21582;101091;;;;-69
2023/07/26 22:22:26;;;;;;;0.2;0.1;;;;;;;;;;;;;-69
2023/07/26 22:22:57;;;;;;;;;;;;;;;16.42;53.08008;101084.8;;;;-69
2023/07/26 22:27:56;;;;;;;;;;;;;;;16.37;53.25586;101078.9;;;;-68
2023/07/26 22:32:56;;;;;;;;;;;;;;;16.37;53.40234;101071.1;;;;-69
2023/07/26 22:37:56;;;;;;;;;;;;;;;16.38;53.5166;101075.7;;;;-68
2023/07/26 22:42:56;;;;;;;;;;;;;;;16.36;53.66211;101068.4;;;;-69
2023/07/26 22:47:56;;;;;;;;;;;;;;;16.33;53.48926;101065;;;;-70
2023/07/26 22:52:28;;;;;;;0.2;0;;;;;;;;;;;;;-70
2023/07/26 22:52:57;;;;;;;;;;;;;;;16.32;53.71387;101059.5;;;;-69
2023/07/26 22:57:56;;;;;;;;;;;;;;;16.33;53.75977;101055.3;;;;-68
2023/07/26 23:02:56;;;;;;;;;;;;;;;16.31;54.44727;101053.6;;;;-72
2023/07/26 23:07:56;;;;;;;;;;;;;;;16.31;54.2207;101046.8;;;;-72
2023/07/26 23:12:59;;;;;;;;;;;;;;;16.32;55.26074;101037.7;;;;-73
2023/07/26 23:17:56;;;;;;;;;;;;;;;16.32;55.22754;101031.6;;;;-71
2023/07/26 23:22:31;;;;;;;0.2;0;;;;;;;;;;;;;-72
2023/07/26 23:22:56;;;;;;;;;;;;;;;16.3;54.88672;101025.5;;;;-72
2023/07/26 23:27:56;;;;;;;;;;;;;;;16.31;55.125;101017.1;;;;-72
2023/07/26 23:32:56;;;;;;;;;;;;;;;16.33;55.2627;101011.6;;;;-71
2023/07/26 23:37:56;;;;;;;;;;;;;;;16.32;55.02441;101005.9;;;;-70
2023/07/26 23:42:57;;;;;;;;;;;;;;;16.3;55.37207;101002.5;;;;-68
2023/07/26 23:47:56;;;;;;;;;;;;;;;16.34;55.22852;100994;;;;-69
2023/07/26 23:52:33;;;;;;;0.2;0;;;;;;;;;;;;;-69
2023/07/26 23:52:56;;;;;;;;;;;;;;;16.33;55.23926;100987.8;;;;-67
2023/07/26 23:57:56;;;;;;;;;;;;;;;16.33;55.25;100982.5;;;;-68
